sensor_id;sensor_type;location;lat;lon;timestamp;pressure;altitude;pressure_sealevel;temperature;humidity
10668;BME280;5382;42.136;24.796;2022-12-29T00:02:08;101119.53;;;5.69;100.00
10668;BME280;5382;42.136;24.796;2022-12-29T00:04:35;101120.13;;;5.51;100.00
10668;BME280;5382;42.136;24.796;2022-12-29T00:07:02;101124.91;;;5.36;100.00
10668;BME280;5382;42.136;24.796;2022-12-29T00:09:31;101112.00;;;5.30;100.00
10668;BME280;5382;42.136;24.796;2022-12-29T00:12:17;101126.72;;;5.34;100.00
10668;BME280;5382;42.136;24.796;2022-12-29T00:14:44;101122.59;;;5.27;100.00
10668;BME280;5382;42.136;24.796;2022-12-29T00:17:29;101127.50;;;5.38;100.00
10668;BME280;5382;42.136;24.796;2022-12-29T00:19:56;101136.34;;;5.35;100.00
10668;BME280;5382;42.136;24.796;2022-12-29T00:22:40;101138.91;;;5.37;100.00
10668;BME280;5382;42.136;24.796;2022-12-29T00:25:24;101136.13;;;5.41;100.00
10668;BME280;5382;42.136;24.796;2022-12-29T00:28:10;101139.63;;;5.42;100.00
10668;BME280;5382;42.136;24.796;2022-12-29T00:30:58;101131.59;;;5.46;100.00
10668;BME280;5382;42.136;24.796;2022-12-29T00:33:43;101146.38;;;5.51;100.00
10668;BME280;5382;42.136;24.796;2022-12-29T00:36:29;101149.13;;;5.46;100.00
10668;BME280;5382;42.136;24.796;2022-12-29T00:39:00;101160.69;;;5.68;100.00
10668;BME280;5382;42.136;24.796;2022-12-29T00:41:44;101166.81;;;5.69;100.00
10668;BME280;5382;42.136;24.796;2022-12-29T00:44:30;101163.31;;;5.68;100.00
10668;BME280;5382;42.136;24.796;2022-12-29T00:46:57;101162.97;;;5.79;100.00
10668;BME280;5382;42.136;24.796;2022-12-29T00:49:27;101164.59;;;5.83;100.00
10668;BME280;5382;42.136;24.796;2022-12-29T00:51:57;101168.94;;;5.84;100.00
10668;BME280;5382;42.136;24.796;2022-12-29T00:54:24;101163.59;;;5.87;100.00
10668;BME280;5382;42.136;24.796;2022-12-29T00:56:52;101175.53;;;5.99;100.00
10668;BME280;5382;42.136;24.796;2022-12-29T00:59:19;101169.19;;;6.05;100.00
10668;BME280;5382;42.136;24.796;2022-12-29T01:01:47;101168.84;;;6.16;100.00
10668;BME280;5382;42.136;24.796;2022-12-29T01:04:14;101172.84;;;6.27;100.00
10668;BME280;5382;42.136;24.796;2022-12-29T01:06:41;101168.69;;;6.20;100.00
10668;BME280;5382;42.136;24.796;2022-12-29T01:09:09;101170.81;;;6.36;100.00
10668;BME280;5382;42.136;24.796;2022-12-29T01:11:53;101159.06;;;6.46;100.00
10668;BME280;5382;42.136;24.796;2022-12-29T01:14:20;101164.91;;;6.54;100.00
10668;BME280;5382;42.136;24.796;2022-12-29T01:16:49;101161.44;;;6.53;100.00
10668;BME280;5382;42.136;24.796;2022-12-29T01:19:16;101173.44;;;6.61;100.00
10668;BME280;5382;42.136;24.796;2022-12-29T01:21:43;101170.66;;;6.65;100.00
10668;BME280;5382;42.136;24.796;2022-12-29T01:24:10;101158.56;;;6.60;100.00
10668;BME280;5382;42.136;24.796;2022-12-29T01:26:37;101163.78;;;6.61;100.00
10668;BME280;5382;42.136;24.796;2022-12-29T01:29:04;101169.06;;;6.61;100.00
10668;BME280;5382;42.136;24.796;2022-12-29T01:31:31;101163.56;;;6.67;100.00
10668;BME280;5382;42.136;24.796;2022-12-29T01:33:59;101173.16;;;6.68;100.00
10668;BME280;5382;42.136;24.796;2022-12-29T01:36:26;101161.50;;;6.75;100.00
10668;BME280;5382;42.136;24.796;2022-12-29T01:38:53;101155.63;;;6.69;100.00
10668;BME280;5382;42.136;24.796;2022-12-29T01:41:20;101154.97;;;6.62;100.00
10668;BME280;5382;42.136;24.796;2022-12-29T01:43:49;101154.47;;;6.76;100.00
10668;BME280;5382;42.136;24.796;2022-12-29T01:46:22;101131.78;;;6.73;100.00
10668;BME280;5382;42.136;24.796;2022-12-29T01:48:53;101136.47;;;6.89;100.00
10668;BME280;5382;42.136;24.796;2022-12-29T01:51:24;101134.78;;;6.88;100.00
10668;BME280;5382;42.136;24.796;2022-12-29T01:53:53;101143.34;;;6.93;100.00
10668;BME280;5382;42.136;24.796;2022-12-29T01:56:22;101138.72;;;6.99;100.00
10668;BME280;5382;42.136;24.796;2022-12-29T01:58:54;101131.56;;;7.03;100.00
10668;BME280;5382;42.136;24.796;2022-12-29T02:01:23;101098.34;;;6.77;100.00
10668;BME280;5382;42.136;24.796;2022-12-29T02:03:51;101070.41;;;6.73;100.00
10668;BME280;5382;42.136;24.796;2022-12-29T02:06:21;101119.31;;;7.02;100.00
10668;BME280;5382;42.136;24.796;2022-12-29T02:08:52;101121.63;;;7.11;100.00
10668;BME280;5382;42.136;24.796;2022-12-29T02:11:21;101114.53;;;7.13;100.00
10668;BME280;5382;42.136;24.796;2022-12-29T02:13:48;101107.03;;;7.03;100.00
10668;BME280;5382;42.136;24.796;2022-12-29T02:16:26;101102.63;;;7.03;100.00
10668;BME280;5382;42.136;24.796;2022-12-29T02:19:09;101103.44;;;7.05;100.00
10668;BME280;5382;42.136;24.796;2022-12-29T02:21:54;101101.38;;;6.90;100.00
10668;BME280;5382;42.136;24.796;2022-12-29T02:27:50;101099.63;;;7.12;100.00
10668;BME280;5382;42.136;24.796;2022-12-29T02:30:46;101091.63;;;7.15;100.00
10668;BME280;5382;42.136;24.796;2022-12-29T02:33:26;101074.38;;;7.08;100.00
10668;BME280;5382;42.136;24.796;2022-12-29T02:36:05;101073.69;;;7.03;100.00
10668;BME280;5382;42.136;24.796;2022-12-29T02:38:45;101078.81;;;7.06;100.00
10668;BME280;5382;42.136;24.796;2022-12-29T02:41:19;101073.22;;;7.15;100.00
10668;BME280;5382;42.136;24.796;2022-12-29T02:43:51;101070.00;;;7.07;100.00
10668;BME280;5382;42.136;24.796;2022-12-29T02:46:26;101072.28;;;7.16;100.00
10668;BME280;5382;42.136;24.796;2022-12-29T02:49:06;101072.16;;;7.19;100.00
10668;BME280;5382;42.136;24.796;2022-12-29T02:51:40;101071.84;;;7.27;100.00
10668;BME280;5382;42.136;24.796;2022-12-29T02:54:10;101066.03;;;7.19;100.00
10668;BME280;5382;42.136;24.796;2022-12-29T02:56:54;101077.19;;;7.26;100.00
10668;BME280;5382;42.136;24.796;2022-12-29T02:59:21;101063.84;;;7.30;100.00
10668;BME280;5382;42.136;24.796;2022-12-29T03:02:07;101067.28;;;7.32;100.00
10668;BME280;5382;42.136;24.796;2022-12-29T03:04:59;101062.38;;;7.23;100.00
10668;BME280;5382;42.136;24.796;2022-12-29T03:07:34;101064.75;;;7.29;100.00
10668;BME280;5382;42.136;24.796;2022-12-29T03:10:11;101069.09;;;7.08;100.00
10668;BME280;5382;42.136;24.796;2022-12-29T03:12:47;101058.31;;;6.92;100.00
10668;BME280;5382;42.136;24.796;2022-12-29T03:15:34;101052.28;;;6.89;100.00
10668;BME280;5382;42.136;24.796;2022-12-29T03:18:28;101061.22;;;6.85;100.00
10668;BME280;5382;42.136;24.796;2022-12-29T03:21:02;101056.66;;;6.90;100.00
10668;BME280;5382;42.136;24.796;2022-12-29T03:23:31;101037.75;;;6.55;100.00
10668;BME280;5382;42.136;24.796;2022-12-29T03:26:03;101068.84;;;6.69;100.00
10668;BME280;5382;42.136;24.796;2022-12-29T03:28:37;101069.69;;;6.69;100.00
10668;BME280;5382;42.136;24.796;2022-12-29T03:31:06;101066.56;;;6.58;100.00
10668;BME280;5382;42.136;24.796;2022-12-29T03:33:37;101069.47;;;6.50;100.00
10668;BME280;5382;42.136;24.796;2022-12-29T03:36:07;101072.03;;;6.28;100.00
10668;BME280;5382;42.136;24.796;2022-12-29T03:38:42;101066.38;;;6.14;100.00
10668;BME280;5382;42.136;24.796;2022-12-29T03:41:13;101063.16;;;6.06;100.00
10668;BME280;5382;42.136;24.796;2022-12-29T03:43:42;101060.22;;;5.88;100.00
10668;BME280;5382;42.136;24.796;2022-12-29T03:46:09;101058.06;;;5.75;100.00
10668;BME280;5382;42.136;24.796;2022-12-29T03:48:37;101052.88;;;5.73;100.00
10668;BME280;5382;42.136;24.796;2022-12-29T03:51:04;101057.00;;;5.54;100.00
10668;BME280;5382;42.136;24.796;2022-12-29T03:53:31;101057.69;;;5.32;100.00
10668;BME280;5382;42.136;24.796;2022-12-29T03:55:58;101052.69;;;5.24;100.00
10668;BME280;5382;42.136;24.796;2022-12-29T03:58:24;101055.56;;;5.17;100.00
10668;BME280;5382;42.136;24.796;2022-12-29T04:00:51;101061.69;;;5.16;100.00
10668;BME280;5382;42.136;24.796;2022-12-29T04:03:18;101049.59;;;5.12;100.00
10668;BME280;5382;42.136;24.796;2022-12-29T04:05:46;101055.59;;;5.15;100.00
10668;BME280;5382;42.136;24.796;2022-12-29T04:08:13;101064.31;;;5.16;100.00
10668;BME280;5382;42.136;24.796;2022-12-29T04:10:40;101059.88;;;5.18;100.00
10668;BME280;5382;42.136;24.796;2022-12-29T04:13:07;101064.19;;;5.20;100.00
10668;BME280;5382;42.136;24.796;2022-12-29T04:15:34;101068.69;;;5.17;100.00
10668;BME280;5382;42.136;24.796;2022-12-29T04:18:00;101057.69;;;5.04;100.00
10668;BME280;5382;42.136;24.796;2022-12-29T04:20:27;101065.47;;;5.07;100.00
10668;BME280;5382;42.136;24.796;2022-12-29T04:23:12;101074.38;;;5.01;100.00
10668;BME280;5382;42.136;24.796;2022-12-29T04:25:39;101071.03;;;4.96;100.00
10668;BME280;5382;42.136;24.796;2022-12-29T04:28:06;101070.41;;;4.88;100.00
10668;BME280;5382;42.136;24.796;2022-12-29T04:30:33;101076.72;;;4.81;100.00
10668;BME280;5382;42.136;24.796;2022-12-29T04:33:00;101079.50;;;4.75;100.00
10668;BME280;5382;42.136;24.796;2022-12-29T04:35:26;101084.94;;;4.69;100.00
10668;BME280;5382;42.136;24.796;2022-12-29T04:37:53;101083.25;;;4.68;100.00
10668;BME280;5382;42.136;24.796;2022-12-29T04:40:21;101096.34;;;4.68;100.00
10668;BME280;5382;42.136;24.796;2022-12-29T04:42:49;101100.59;;;4.72;100.00
10668;BME280;5382;42.136;24.796;2022-12-29T04:45:16;101103.06;;;4.78;100.00
10668;BME280;5382;42.136;24.796;2022-12-29T04:47:43;101104.66;;;4.82;100.00
10668;BME280;5382;42.136;24.796;2022-12-29T04:50:10;101100.78;;;4.66;100.00
10668;BME280;5382;42.136;24.796;2022-12-29T04:52:37;101104.66;;;4.82;100.00
10668;BME280;5382;42.136;24.796;2022-12-29T04:55:05;101112.28;;;4.91;100.00
10668;BME280;5382;42.136;24.796;2022-12-29T04:57:33;101106.25;;;4.88;100.00
10668;BME280;5382;42.136;24.796;2022-12-29T05:00:00;101114.56;;;5.03;100.00
10668;BME280;5382;42.136;24.796;2022-12-29T05:02:28;101095.72;;;4.89;100.00
10668;BME280;5382;42.136;24.796;2022-12-29T05:04:54;101111.22;;;4.98;100.00
10668;BME280;5382;42.136;24.796;2022-12-29T05:07:21;101114.81;;;4.94;100.00
10668;BME280;5382;42.136;24.796;2022-12-29T05:09:48;101120.91;;;4.95;100.00
10668;BME280;5382;42.136;24.796;2022-12-29T05:12:15;101124.03;;;4.78;100.00
10668;BME280;5382;42.136;24.796;2022-12-29T05:14:43;101118.59;;;4.84;100.00
10668;BME280;5382;42.136;24.796;2022-12-29T05:17:09;101117.47;;;4.93;100.00
10668;BME280;5382;42.136;24.796;2022-12-29T05:19:36;101125.06;;;5.02;100.00
10668;BME280;5382;42.136;24.796;2022-12-29T05:22:04;101119.84;;;5.02;100.00
10668;BME280;5382;42.136;24.796;2022-12-29T05:24:31;101119.28;;;4.91;100.00
10668;BME280;5382;42.136;24.796;2022-12-29T05:26:58;101105.56;;;4.81;100.00
10668;BME280;5382;42.136;24.796;2022-12-29T05:29:25;101109.88;;;4.84;100.00
10668;BME280;5382;42.136;24.796;2022-12-29T05:31:53;101105.28;;;4.90;100.00
10668;BME280;5382;42.136;24.796;2022-12-29T05:34:20;101106.22;;;4.89;100.00
10668;BME280;5382;42.136;24.796;2022-12-29T05:36:46;101100.25;;;4.84;100.00
10668;BME280;5382;42.136;24.796;2022-12-29T05:39:13;101114.41;;;4.78;100.00
10668;BME280;5382;42.136;24.796;2022-12-29T05:41:40;101118.78;;;4.78;100.00
10668;BME280;5382;42.136;24.796;2022-12-29T05:44:07;101116.31;;;4.72;100.00
10668;BME280;5382;42.136;24.796;2022-12-29T05:46:33;101107.59;;;4.71;100.00
10668;BME280;5382;42.136;24.796;2022-12-29T05:49:02;101108.50;;;4.70;100.00
10668;BME280;5382;42.136;24.796;2022-12-29T05:51:28;101105.91;;;4.69;100.00
10668;BME280;5382;42.136;24.796;2022-12-29T05:53:55;101093.97;;;4.58;100.00
10668;BME280;5382;42.136;24.796;2022-12-29T05:56:23;101098.47;;;4.53;100.00
10668;BME280;5382;42.136;24.796;2022-12-29T05:58:50;101095.41;;;4.39;100.00
10668;BME280;5382;42.136;24.796;2022-12-29T06:01:16;101099.06;;;4.32;100.00
10668;BME280;5382;42.136;24.796;2022-12-29T06:03:43;101093.91;;;4.29;100.00
10668;BME280;5382;42.136;24.796;2022-12-29T06:06:11;101094.47;;;4.40;100.00
10668;BME280;5382;42.136;24.796;2022-12-29T06:08:38;101105.78;;;4.42;100.00
10668;BME280;5382;42.136;24.796;2022-12-29T06:11:05;101101.78;;;4.29;100.00
10668;BME280;5382;42.136;24.796;2022-12-29T06:13:32;101110.31;;;4.35;100.00
10668;BME280;5382;42.136;24.796;2022-12-29T06:15:58;101108.34;;;4.44;100.00
10668;BME280;5382;42.136;24.796;2022-12-29T06:18:25;101100.25;;;4.53;100.00
10668;BME280;5382;42.136;24.796;2022-12-29T06:20:52;101095.31;;;4.42;100.00
10668;BME280;5382;42.136;24.796;2022-12-29T06:23:20;101097.63;;;4.53;100.00
10668;BME280;5382;42.136;24.796;2022-12-29T06:25:47;101119.31;;;4.58;100.00
10668;BME280;5382;42.136;24.796;2022-12-29T06:28:14;101113.56;;;4.45;100.00
10668;BME280;5382;42.136;24.796;2022-12-29T06:30:43;101117.47;;;4.62;100.00
10668;BME280;5382;42.136;24.796;2022-12-29T06:33:10;101106.47;;;4.49;100.00
10668;BME280;5382;42.136;24.796;2022-12-29T06:35:37;101125.31;;;4.63;100.00
10668;BME280;5382;42.136;24.796;2022-12-29T06:38:04;101125.41;;;4.60;100.00
10668;BME280;5382;42.136;24.796;2022-12-29T06:40:33;101129.38;;;4.42;100.00
10668;BME280;5382;42.136;24.796;2022-12-29T06:42:59;101134.28;;;4.22;100.00
10668;BME280;5382;42.136;24.796;2022-12-29T06:45:26;101133.63;;;4.13;100.00
10668;BME280;5382;42.136;24.796;2022-12-29T06:47:53;101132.22;;;4.33;100.00
10668;BME280;5382;42.136;24.796;2022-12-29T06:50:20;101137.63;;;4.27;100.00
10668;BME280;5382;42.136;24.796;2022-12-29T06:52:47;101137.06;;;4.48;100.00
10668;BME280;5382;42.136;24.796;2022-12-29T06:55:13;101144.63;;;4.59;100.00
10668;BME280;5382;42.136;24.796;2022-12-29T06:57:41;101142.75;;;4.64;100.00
10668;BME280;5382;42.136;24.796;2022-12-29T07:00:09;101137.94;;;4.80;100.00
10668;BME280;5382;42.136;24.796;2022-12-29T07:02:36;101147.13;;;4.95;100.00
10668;BME280;5382;42.136;24.796;2022-12-29T07:05:03;101140.94;;;4.97;100.00
10668;BME280;5382;42.136;24.796;2022-12-29T07:07:30;101152.00;;;5.09;100.00
10668;BME280;5382;42.136;24.796;2022-12-29T07:09:57;101158.78;;;5.16;100.00
10668;BME280;5382;42.136;24.796;2022-12-29T07:12:23;101163.00;;;5.21;100.00
10668;BME280;5382;42.136;24.796;2022-12-29T07:14:52;101160.94;;;5.31;100.00
10668;BME280;5382;42.136;24.796;2022-12-29T07:17:18;101165.94;;;5.40;100.00
10668;BME280;5382;42.136;24.796;2022-12-29T07:19:45;101159.44;;;5.52;100.00
10668;BME280;5382;42.136;24.796;2022-12-29T07:22:12;101160.31;;;5.53;100.00
10668;BME280;5382;42.136;24.796;2022-12-29T07:24:39;101158.69;;;5.49;100.00
10668;BME280;5382;42.136;24.796;2022-12-29T07:27:05;101153.22;;;5.55;100.00
10668;BME280;5382;42.136;24.796;2022-12-29T07:29:32;101154.00;;;5.58;100.00
10668;BME280;5382;42.136;24.796;2022-12-29T07:32:01;101149.34;;;5.68;100.00
10668;BME280;5382;42.136;24.796;2022-12-29T07:34:27;101150.84;;;5.75;100.00
10668;BME280;5382;42.136;24.796;2022-12-29T07:36:54;101146.97;;;5.87;100.00
10668;BME280;5382;42.136;24.796;2022-12-29T07:39:21;101140.94;;;6.11;100.00
10668;BME280;5382;42.136;24.796;2022-12-29T07:41:48;101147.81;;;6.16;100.00
10668;BME280;5382;42.136;24.796;2022-12-29T07:44:14;101159.84;;;6.23;100.00
10668;BME280;5382;42.136;24.796;2022-12-29T07:46:41;101153.91;;;6.16;100.00
10668;BME280;5382;42.136;24.796;2022-12-29T07:49:09;101148.13;;;6.33;100.00
10668;BME280;5382;42.136;24.796;2022-12-29T07:51:36;101142.84;;;6.33;100.00
10668;BME280;5382;42.136;24.796;2022-12-29T07:54:03;101145.84;;;6.47;100.00
10668;BME280;5382;42.136;24.796;2022-12-29T07:56:30;101151.91;;;6.49;100.00
10668;BME280;5382;42.136;24.796;2022-12-29T07:58:57;101152.84;;;6.48;100.00
10668;BME280;5382;42.136;24.796;2022-12-29T08:01:23;101156.22;;;6.52;100.00
10668;BME280;5382;42.136;24.796;2022-12-29T08:03:50;101173.66;;;6.54;100.00
10668;BME280;5382;42.136;24.796;2022-12-29T08:06:18;101156.91;;;6.57;100.00
10668;BME280;5382;42.136;24.796;2022-12-29T08:08:45;101162.44;;;6.74;100.00
10668;BME280;5382;42.136;24.796;2022-12-29T08:11:12;101165.50;;;6.87;100.00
10668;BME280;5382;42.136;24.796;2022-12-29T08:13:39;101162.63;;;6.93;100.00
10668;BME280;5382;42.136;24.796;2022-12-29T08:16:06;101160.41;;;7.06;100.00
10668;BME280;5382;42.136;24.796;2022-12-29T08:18:33;101163.47;;;7.17;100.00
10668;BME280;5382;42.136;24.796;2022-12-29T08:21:02;101172.88;;;7.25;100.00
10668;BME280;5382;42.136;24.796;2022-12-29T08:23:30;101160.09;;;7.37;100.00
10668;BME280;5382;42.136;24.796;2022-12-29T08:25:58;101156.16;;;7.49;100.00
10668;BME280;5382;42.136;24.796;2022-12-29T08:28:25;101160.88;;;7.63;100.00
10668;BME280;5382;42.136;24.796;2022-12-29T08:30:52;101163.88;;;7.76;100.00
10668;BME280;5382;42.136;24.796;2022-12-29T08:33:19;101156.66;;;7.81;100.00
10668;BME280;5382;42.136;24.796;2022-12-29T08:35:46;101163.56;;;7.83;100.00
10668;BME280;5382;42.136;24.796;2022-12-29T08:38:13;101161.13;;;7.79;100.00
10668;BME280;5382;42.136;24.796;2022-12-29T08:40:41;101152.91;;;7.86;100.00
10668;BME280;5382;42.136;24.796;2022-12-29T08:43:08;101151.13;;;7.87;100.00
10668;BME280;5382;42.136;24.796;2022-12-29T08:45:35;101144.00;;;7.89;100.00
10668;BME280;5382;42.136;24.796;2022-12-29T08:48:01;101149.78;;;7.99;100.00
10668;BME280;5382;42.136;24.796;2022-12-29T08:50:28;101148.53;;;8.07;100.00
10668;BME280;5382;42.136;24.796;2022-12-29T08:52:55;101143.78;;;8.16;100.00
10668;BME280;5382;42.136;24.796;2022-12-29T08:55:22;101139.84;;;8.26;100.00
10668;BME280;5382;42.136;24.796;2022-12-29T08:57:50;101128.91;;;8.35;100.00
10668;BME280;5382;42.136;24.796;2022-12-29T09:00:17;101138.91;;;8.49;100.00
10668;BME280;5382;42.136;24.796;2022-12-29T09:02:45;101134.63;;;8.46;100.00
10668;BME280;5382;42.136;24.796;2022-12-29T09:05:12;101126.50;;;8.51;100.00
10668;BME280;5382;42.136;24.796;2022-12-29T09:07:39;101118.53;;;8.52;100.00
10668;BME280;5382;42.136;24.796;2022-12-29T09:10:06;101118.66;;;8.70;100.00
10668;BME280;5382;42.136;24.796;2022-12-29T09:12:34;101112.28;;;8.74;100.00
10668;BME280;5382;42.136;24.796;2022-12-29T09:15:02;101118.09;;;8.82;100.00
10668;BME280;5382;42.136;24.796;2022-12-29T09:17:29;101104.41;;;8.93;100.00
10668;BME280;5382;42.136;24.796;2022-12-29T09:20:12;101113.41;;;9.08;100.00
10668;BME280;5382;42.136;24.796;2022-12-29T09:22:39;101107.22;;;9.09;100.00
10668;BME280;5382;42.136;24.796;2022-12-29T09:25:07;101097.19;;;9.15;100.00
10668;BME280;5382;42.136;24.796;2022-12-29T09:27:34;101096.06;;;9.21;100.00
10668;BME280;5382;42.136;24.796;2022-12-29T09:30:04;101098.97;;;9.34;100.00
10668;BME280;5382;42.136;24.796;2022-12-29T09:32:31;101090.53;;;9.45;100.00
10668;BME280;5382;42.136;24.796;2022-12-29T09:34:58;101086.47;;;9.56;100.00
10668;BME280;5382;42.136;24.796;2022-12-29T09:37:24;101088.09;;;9.59;100.00
10668;BME280;5382;42.136;24.796;2022-12-29T09:39:51;101076.75;;;9.57;100.00
10668;BME280;5382;42.136;24.796;2022-12-29T09:42:23;101059.03;;;9.59;100.00
10668;BME280;5382;42.136;24.796;2022-12-29T09:45:04;101059.97;;;9.75;100.00
10668;BME280;5382;42.136;24.796;2022-12-29T09:47:34;101055.72;;;9.90;100.00
10668;BME280;5382;42.136;24.796;2022-12-29T09:50:04;101036.03;;;9.96;100.00
10668;BME280;5382;42.136;24.796;2022-12-29T09:52:35;101049.41;;;10.10;100.00
10668;BME280;5382;42.136;24.796;2022-12-29T09:55:09;101049.72;;;9.87;100.00
10668;BME280;5382;42.136;24.796;2022-12-29T09:57:42;101043.78;;;9.99;100.00
10668;BME280;5382;42.136;24.796;2022-12-29T10:00:16;101035.69;;;10.19;100.00
10668;BME280;5382;42.136;24.796;2022-12-29T10:02:44;101032.03;;;10.39;100.00
10668;BME280;5382;42.136;24.796;2022-12-29T10:08:10;101016.34;;;10.36;100.00
10668;BME280;5382;42.136;24.796;2022-12-29T10:10:50;101027.34;;;10.27;100.00
10668;BME280;5382;42.136;24.796;2022-12-29T10:13:28;101025.91;;;10.39;100.00
10668;BME280;5382;42.136;24.796;2022-12-29T10:16:02;100995.00;;;10.39;100.00
10668;BME280;5382;42.136;24.796;2022-12-29T10:18:55;101017.09;;;10.72;100.00
10668;BME280;5382;42.136;24.796;2022-12-29T10:21:36;101019.81;;;10.70;100.00
10668;BME280;5382;42.136;24.796;2022-12-29T10:24:10;101012.06;;;10.83;100.00
10668;BME280;5382;42.136;24.796;2022-12-29T10:26:40;101014.72;;;10.83;100.00
10668;BME280;5382;42.136;24.796;2022-12-29T10:29:16;100971.63;;;10.63;100.00
10668;BME280;5382;42.136;24.796;2022-12-29T10:31:50;101008.81;;;10.94;100.00
10668;BME280;5382;42.136;24.796;2022-12-29T10:34:22;101005.50;;;10.90;100.00
10668;BME280;5382;42.136;24.796;2022-12-29T10:36:55;101000.78;;;10.95;100.00
10668;BME280;5382;42.136;24.796;2022-12-29T10:39:30;100994.03;;;11.05;100.00
10668;BME280;5382;42.136;24.796;2022-12-29T10:42:04;100998.16;;;10.95;100.00
10668;BME280;5382;42.136;24.796;2022-12-29T10:44:36;100997.44;;;11.07;100.00
10668;BME280;5382;42.136;24.796;2022-12-29T10:47:07;100996.06;;;11.32;100.00
10668;BME280;5382;42.136;24.796;2022-12-29T10:49:40;100977.59;;;11.30;100.00
10668;BME280;5382;42.136;24.796;2022-12-29T10:52:08;100986.91;;;11.68;100.00
10668;BME280;5382;42.136;24.796;2022-12-29T10:54:40;100986.28;;;12.37;100.00
10668;BME280;5382;42.136;24.796;2022-12-29T10:57:13;100978.91;;;13.11;100.00
10668;BME280;5382;42.136;24.796;2022-12-29T10:59:43;100981.63;;;14.29;100.00
10668;BME280;5382;42.136;24.796;2022-12-29T11:02:30;100981.44;;;14.95;100.00
10668;BME280;5382;42.136;24.796;2022-12-29T11:05:06;100959.75;;;15.23;100.00
10668;BME280;5382;42.136;24.796;2022-12-29T11:07:36;100971.00;;;15.75;100.00
10668;BME280;5382;42.136;24.796;2022-12-29T11:10:19;100955.28;;;16.51;100.00
10668;BME280;5382;42.136;24.796;2022-12-29T11:13:00;100937.94;;;17.11;95.67
10668;BME280;5382;42.136;24.796;2022-12-29T11:15:28;100927.44;;;17.94;89.57
10668;BME280;5382;42.136;24.796;2022-12-29T11:18:17;100931.66;;;18.58;83.60
10668;BME280;5382;42.136;24.796;2022-12-29T11:20:45;100916.41;;;19.08;77.60
10668;BME280;5382;42.136;24.796;2022-12-29T11:23:23;100910.06;;;19.95;72.40
10668;BME280;5382;42.136;24.796;2022-12-29T11:26:13;100897.25;;;20.44;67.54
10668;BME280;5382;42.136;24.796;2022-12-29T11:28:42;100895.34;;;20.64;64.92
10668;BME280;5382;42.136;24.796;2022-12-29T11:31:10;100898.69;;;21.12;61.82
10668;BME280;5382;42.136;24.796;2022-12-29T11:33:38;100886.28;;;21.19;60.45
10668;BME280;5382;42.136;24.796;2022-12-29T11:36:10;100887.91;;;21.30;58.54
10668;BME280;5382;42.136;24.796;2022-12-29T11:38:40;100895.91;;;21.22;58.38
10668;BME280;5382;42.136;24.796;2022-12-29T11:41:12;100892.75;;;21.44;56.80
10668;BME280;5382;42.136;24.796;2022-12-29T11:43:42;100891.19;;;21.60;56.57
10668;BME280;5382;42.136;24.796;2022-12-29T11:46:15;100881.56;;;21.57;56.10
10668;BME280;5382;42.136;24.796;2022-12-29T11:48:46;100895.31;;;22.75;52.74
10668;BME280;5382;42.136;24.796;2022-12-29T11:51:21;100881.03;;;22.48;52.22
10668;BME280;5382;42.136;24.796;2022-12-29T11:53:50;100882.16;;;21.95;53.29
10668;BME280;5382;42.136;24.796;2022-12-29T11:56:21;100872.19;;;21.61;54.49
10668;BME280;5382;42.136;24.796;2022-12-29T11:58:49;100879.53;;;20.61;57.10
10668;BME280;5382;42.136;24.796;2022-12-29T12:01:21;100873.97;;;20.35;57.80
10668;BME280;5382;42.136;24.796;2022-12-29T12:03:58;100867.16;;;20.13;58.37
10668;BME280;5382;42.136;24.796;2022-12-29T12:06:27;100861.63;;;20.70;56.52
10668;BME280;5382;42.136;24.796;2022-12-29T12:08:58;100855.06;;;21.44;55.11
10668;BME280;5382;42.136;24.796;2022-12-29T12:11:30;100858.03;;;21.59;53.79
10668;BME280;5382;42.136;24.796;2022-12-29T12:14:05;100851.81;;;21.59;53.51
10668;BME280;5382;42.136;24.796;2022-12-29T12:16:38;100856.47;;;22.17;51.60
10668;BME280;5382;42.136;24.796;2022-12-29T12:19:15;100853.66;;;22.77;49.65
10668;BME280;5382;42.136;24.796;2022-12-29T12:21:51;100858.59;;;22.98;48.64
10668;BME280;5382;42.136;24.796;2022-12-29T12:24:52;100849.97;;;23.27;46.76
10668;BME280;5382;42.136;24.796;2022-12-29T12:27:24;100838.16;;;23.04;47.38
10668;BME280;5382;42.136;24.796;2022-12-29T12:29:59;100836.16;;;23.06;47.21
10668;BME280;5382;42.136;24.796;2022-12-29T12:32:36;100835.81;;;23.17;46.69
10668;BME280;5382;42.136;24.796;2022-12-29T12:35:13;100849.44;;;22.91;47.89
10668;BME280;5382;42.136;24.796;2022-12-29T12:37:52;100832.94;;;23.27;46.86
10668;BME280;5382;42.136;24.796;2022-12-29T12:40:35;100822.94;;;23.36;46.15
10668;BME280;5382;42.136;24.796;2022-12-29T12:43:35;100828.34;;;23.44;44.85
10668;BME280;5382;42.136;24.796;2022-12-29T12:46:15;100821.59;;;22.91;45.81
10668;BME280;5382;42.136;24.796;2022-12-29T12:48:55;100838.78;;;22.73;45.15
10668;BME280;5382;42.136;24.796;2022-12-29T12:51:34;100827.75;;;22.34;46.54
10668;BME280;5382;42.136;24.796;2022-12-29T12:54:17;100842.66;;;22.54;46.42
10668;BME280;5382;42.136;24.796;2022-12-29T12:57:01;100828.72;;;23.08;45.29
10668;BME280;5382;42.136;24.796;2022-12-29T12:59:38;100826.16;;;22.90;45.23
10668;BME280;5382;42.136;24.796;2022-12-29T13:02:19;100806.94;;;23.26;44.13
10668;BME280;5382;42.136;24.796;2022-12-29T13:04:58;100834.38;;;23.70;43.90
10668;BME280;5382;42.136;24.796;2022-12-29T13:07:41;100829.47;;;23.82;43.47
10668;BME280;5382;42.136;24.796;2022-12-29T13:10:21;100833.34;;;23.71;43.32
10668;BME280;5382;42.136;24.796;2022-12-29T13:13:00;100833.09;;;22.93;45.14
10668;BME280;5382;42.136;24.796;2022-12-29T13:15:40;100846.91;;;22.90;45.43
10668;BME280;5382;42.136;24.796;2022-12-29T13:18:16;100847.69;;;22.57;45.68